sensor_id;sensor_type;location;lat;lon;timestamp;temperature;humidity
30037;DHT22;36325;51.512;-0.382;2023-05-20T00:05:20;11.10;99.90
30037;DHT22;36325;51.512;-0.382;2023-05-20T00:07:47;11.10;99.90
30037;DHT22;36325;51.512;-0.382;2023-05-20T00:15:10;10.90;99.90
30037;DHT22;36325;51.512;-0.382;2023-05-20T00:17:40;10.90;99.90
30037;DHT22;36325;51.512;-0.382;2023-05-20T00:20:07;10.80;99.90
30037;DHT22;36325;51.512;-0.382;2023-05-20T00:22:35;10.70;99.90
30037;DHT22;36325;51.512;-0.382;2023-05-20T00:25:03;10.70;99.90
30037;DHT22;36325;51.512;-0.382;2023-05-20T00:27:30;10.70;99.90
30037;DHT22;36325;51.512;-0.382;2023-05-20T00:29:57;10.70;99.90
30037;DHT22;36325;51.512;-0.382;2023-05-20T00:32:24;10.70;99.90
30037;DHT22;36325;51.512;-0.382;2023-05-20T00:34:58;10.60;99.90
30037;DHT22;36325;51.512;-0.382;2023-05-20T00:37:26;10.60;99.90
30037;DHT22;36325;51.512;-0.382;2023-05-20T00:39:54;10.60;99.90
30037;DHT22;36325;51.512;-0.382;2023-05-20T00:42:26;10.50;99.90
30037;DHT22;36325;51.512;-0.382;2023-05-20T00:44:53;10.50;99.90
30037;DHT22;36325;51.512;-0.382;2023-05-20T00:47:34;10.50;99.90
30037;DHT22;36325;51.512;-0.382;2023-05-20T00:50:03;10.40;99.90
30037;DHT22;36325;51.512;-0.382;2023-05-20T00:52:31;10.40;99.90
30037;DHT22;36325;51.512;-0.382;2023-05-20T00:54:59;10.30;99.90
30037;DHT22;36325;51.512;-0.382;2023-05-20T00:57:27;10.30;99.90
30037;DHT22;36325;51.512;-0.382;2023-05-20T00:59:55;10.20;99.90
30037;DHT22;36325;51.512;-0.382;2023-05-20T01:02:23;10.20;99.90
30037;DHT22;36325;51.512;-0.382;2023-05-20T01:04:52;10.20;99.90
30037;DHT22;36325;51.512;-0.382;2023-05-20T01:07:21;10.10;99.90
30037;DHT22;36325;51.512;-0.382;2023-05-20T01:12:22;10.00;99.90
30037;DHT22;36325;51.512;-0.382;2023-05-20T01:14:58;10.00;99.90
30037;DHT22;36325;51.512;-0.382;2023-05-20T01:17:30;9.90;99.90
30037;DHT22;36325;51.512;-0.382;2023-05-20T01:20:01;9.90;99.90
30037;DHT22;36325;51.512;-0.382;2023-05-20T01:22:30;9.90;99.90
30037;DHT22;36325;51.512;-0.382;2023-05-20T01:24:57;9.80;99.90
30037;DHT22;36325;51.512;-0.382;2023-05-20T01:27:25;9.80;99.90
30037;DHT22;36325;51.512;-0.382;2023-05-20T01:29:52;9.70;99.90
30037;DHT22;36325;51.512;-0.382;2023-05-20T01:32:36;9.60;99.90
30037;DHT22;36325;51.512;-0.382;2023-05-20T01:35:09;9.60;99.90
30037;DHT22;36325;51.512;-0.382;2023-05-20T01:37:38;9.50;99.90
30037;DHT22;36325;51.512;-0.382;2023-05-20T01:40:07;9.50;99.90
30037;DHT22;36325;51.512;-0.382;2023-05-20T01:42:36;9.50;99.90
30037;DHT22;36325;51.512;-0.382;2023-05-20T01:45:05;9.40;99.90
30037;DHT22;36325;51.512;-0.382;2023-05-20T01:47:32;9.40;99.90
30037;DHT22;36325;51.512;-0.382;2023-05-20T01:49:59;9.30;99.90
30037;DHT22;36325;51.512;-0.382;2023-05-20T01:52:27;9.30;99.90
30037;DHT22;36325;51.512;-0.382;2023-05-20T02:04:50;9.10;99.90
30037;DHT22;36325;51.512;-0.382;2023-05-20T02:07:17;9.10;99.90
30037;DHT22;36325;51.512;-0.382;2023-05-20T02:09:46;9.10;99.90
30037;DHT22;36325;51.512;-0.382;2023-05-20T02:12:13;9.00;99.90
30037;DHT22;36325;51.512;-0.382;2023-05-20T02:14:47;9.00;99.90
30037;DHT22;36325;51.512;-0.382;2023-05-20T02:17:18;8.90;99.90
30037;DHT22;36325;51.512;-0.382;2023-05-20T02:19:46;9.00;99.90
30037;DHT22;36325;51.512;-0.382;2023-05-20T02:22:13;8.90;99.90
30037;DHT22;36325;51.512;-0.382;2023-05-20T02:24:42;8.90;99.90
30037;DHT22;36325;51.512;-0.382;2023-05-20T02:27:09;8.80;99.90
30037;DHT22;36325;51.512;-0.382;2023-05-20T02:29:37;8.70;99.90
30037;DHT22;36325;51.512;-0.382;2023-05-20T02:32:04;8.70;99.90
30037;DHT22;36325;51.512;-0.382;2023-05-20T02:34:32;8.70;99.90
30037;DHT22;36325;51.512;-0.382;2023-05-20T02:36:59;8.60;99.90
30037;DHT22;36325;51.512;-0.382;2023-05-20T02:41:55;8.60;99.90
30037;DHT22;36325;51.512;-0.382;2023-05-20T02:44:25;8.50;99.90
30037;DHT22;36325;51.512;-0.382;2023-05-20T02:49:23;8.50;99.90
30037;DHT22;36325;51.512;-0.382;2023-05-20T02:51:51;8.50;99.90
30037;DHT22;36325;51.512;-0.382;2023-05-20T02:54:18;8.40;99.90
30037;DHT22;36325;51.512;-0.382;2023-05-20T03:01:41;8.40;99.90
30037;DHT22;36325;51.512;-0.382;2023-05-20T03:04:08;8.50;99.90
30037;DHT22;36325;51.512;-0.382;2023-05-20T03:06:36;8.50;99.90
30037;DHT22;36325;51.512;-0.382;2023-05-20T03:09:04;8.40;99.90
30037;DHT22;36325;51.512;-0.382;2023-05-20T03:11:33;8.40;99.90
30037;DHT22;36325;51.512;-0.382;2023-05-20T03:14:00;8.40;99.90
30037;DHT22;36325;51.512;-0.382;2023-05-20T03:16:27;8.40;99.90
30037;DHT22;36325;51.512;-0.382;2023-05-20T03:18:58;8.40;99.90
30037;DHT22;36325;51.512;-0.382;2023-05-20T03:21:28;8.40;99.90
30037;DHT22;36325;51.512;-0.382;2023-05-20T03:23:56;8.30;99.90
30037;DHT22;36325;51.512;-0.382;2023-05-20T03:26:24;8.30;99.90
30037;DHT22;36325;51.512;-0.382;2023-05-20T03:28:51;8.30;99.90
30037;DHT22;36325;51.512;-0.382;2023-05-20T03:31:20;8.30;99.90
30037;DHT22;36325;51.512;-0.382;2023-05-20T03:33:49;8.30;99.90
30037;DHT22;36325;51.512;-0.382;2023-05-20T03:36:16;8.20;99.90
30037;DHT22;36325;51.512;-0.382;2023-05-20T03:38:43;8.30;99.90
30037;DHT22;36325;51.512;-0.382;2023-05-20T03:41:11;8.30;99.90
30037;DHT22;36325;51.512;-0.382;2023-05-20T03:43:38;8.20;99.90
30037;DHT22;36325;51.512;-0.382;2023-05-20T03:46:07;8.20;99.90
30037;DHT22;36325;51.512;-0.382;2023-05-20T03:48:35;8.20;99.90
30037;DHT22;36325;51.512;-0.382;2023-05-20T03:51:03;8.20;99.90
30037;DHT22;36325;51.512;-0.382;2023-05-20T03:53:31;9.60;99.90
30037;DHT22;36325;51.512;-0.382;2023-05-20T03:55:58;8.10;99.90
30037;DHT22;36325;51.512;-0.382;2023-05-20T03:58:26;8.10;99.90
30037;DHT22;36325;51.512;-0.382;2023-05-20T04:00:55;8.20;99.90
30037;DHT22;36325;51.512;-0.382;2023-05-20T04:05:52;8.20;99.90
30037;DHT22;36325;51.512;-0.382;2023-05-20T04:08:20;8.30;99.90
30037;DHT22;36325;51.512;-0.382;2023-05-20T04:10:48;8.30;99.90
30037;DHT22;36325;51.512;-0.382;2023-05-20T04:13:15;8.40;99.90
30037;DHT22;36325;51.512;-0.382;2023-05-20T04:15:43;8.50;99.90
30037;DHT22;36325;51.512;-0.382;2023-05-20T04:18:13;8.60;99.90
30037;DHT22;36325;51.512;-0.382;2023-05-20T04:20:41;8.60;99.90
30037;DHT22;36325;51.512;-0.382;2023-05-20T04:23:10;8.70;99.90
30037;DHT22;36325;51.512;-0.382;2023-05-20T04:25:38;8.80;99.90
30037;DHT22;36325;51.512;-0.382;2023-05-20T04:28:08;8.90;99.90
30037;DHT22;36325;51.512;-0.382;2023-05-20T04:38:05;9.20;99.90
30037;DHT22;36325;51.512;-0.382;2023-05-20T04:40:33;9.30;99.90
30037;DHT22;36325;51.512;-0.382;2023-05-20T04:47:59;9.50;99.90
30037;DHT22;36325;51.512;-0.382;2023-05-20T04:52:55;9.60;99.90
30037;DHT22;36325;51.512;-0.382;2023-05-20T04:55:23;9.70;99.90
30037;DHT22;36325;51.512;-0.382;2023-05-20T05:05:15;9.90;99.90
30037;DHT22;36325;51.512;-0.382;2023-05-20T05:07:43;9.90;99.90
30037;DHT22;36325;51.512;-0.382;2023-05-20T05:10:12;10.00;99.90
30037;DHT22;36325;51.512;-0.382;2023-05-20T05:12:39;10.00;99.90
30037;DHT22;36325;51.512;-0.382;2023-05-20T05:15:07;10.00;99.90
30037;DHT22;36325;51.512;-0.382;2023-05-20T05:17:35;10.00;99.90
30037;DHT22;36325;51.512;-0.382;2023-05-20T05:25:02;10.10;99.90
30037;DHT22;36325;51.512;-0.382;2023-05-20T05:27:29;10.10;99.90
30037;DHT22;36325;51.512;-0.382;2023-05-20T05:32:25;10.30;99.90
30037;DHT22;36325;51.512;-0.382;2023-05-20T05:34:52;10.30;99.90
30037;DHT22;36325;51.512;-0.382;2023-05-20T05:47:11;10.60;99.90
30037;DHT22;36325;51.512;-0.382;2023-05-20T05:49:38;10.70;99.90
30037;DHT22;36325;51.512;-0.382;2023-05-20T05:52:06;9.90;99.90
30037;DHT22;36325;51.512;-0.382;2023-05-20T05:54:34;10.90;99.90
30037;DHT22;36325;51.512;-0.382;2023-05-20T05:57:01;10.90;99.90
30037;DHT22;36325;51.512;-0.382;2023-05-20T06:02:00;11.10;99.90
30037;DHT22;36325;51.512;-0.382;2023-05-20T06:11:52;11.20;99.90
30037;DHT22;36325;51.512;-0.382;2023-05-20T06:14:19;11.30;99.90
30037;DHT22;36325;51.512;-0.382;2023-05-20T06:16:47;11.30;99.90
30037;DHT22;36325;51.512;-0.382;2023-05-20T06:19:14;11.30;99.90
30037;DHT22;36325;51.512;-0.382;2023-05-20T06:26:37;11.40;99.90
30037;DHT22;36325;51.512;-0.382;2023-05-20T06:36:29;11.50;99.90
30037;DHT22;36325;51.512;-0.382;2023-05-20T06:38:59;11.60;99.90
30037;DHT22;36325;51.512;-0.382;2023-05-20T06:46:49;11.70;99.90
30037;DHT22;36325;51.512;-0.382;2023-05-20T06:51:44;11.80;99.90
30037;DHT22;36325;51.512;-0.382;2023-05-20T06:56:41;11.90;99.90
30037;DHT22;36325;51.512;-0.382;2023-05-20T06:59:08;12.00;99.90
30037;DHT22;36325;51.512;-0.382;2023-05-20T07:01:37;12.00;99.90
30037;DHT22;36325;51.512;-0.382;2023-05-20T07:09:08;12.10;99.90
30037;DHT22;36325;51.512;-0.382;2023-05-20T07:14:04;12.20;99.90
30037;DHT22;36325;51.512;-0.382;2023-05-20T07:19:01;12.30;99.90
30037;DHT22;36325;51.512;-0.382;2023-05-20T07:21:29;12.30;99.90
30037;DHT22;36325;51.512;-0.382;2023-05-20T07:24:25;12.50;99.90
30037;DHT22;36325;51.512;-0.382;2023-05-20T07:26:53;12.50;99.90
30037;DHT22;36325;51.512;-0.382;2023-05-20T07:29:20;12.60;99.90
30037;DHT22;36325;51.512;-0.382;2023-05-20T07:34:16;12.70;99.90
30037;DHT22;36325;51.512;-0.382;2023-05-20T07:41:41;12.90;99.90
30037;DHT22;36325;51.512;-0.382;2023-05-20T07:44:08;12.90;99.90
30037;DHT22;36325;51.512;-0.382;2023-05-20T07:46:39;12.90;99.90
30037;DHT22;36325;51.512;-0.382;2023-05-20T07:49:09;12.90;99.90
30037;DHT22;36325;51.512;-0.382;2023-05-20T07:59:05;13.40;99.90
30037;DHT22;36325;51.512;-0.382;2023-05-20T08:01:40;13.90;99.90
30037;DHT22;36325;51.512;-0.382;2023-05-20T08:06:37;14.50;99.90
30037;DHT22;36325;51.512;-0.382;2023-05-20T08:09:10;14.80;99.90
30037;DHT22;36325;51.512;-0.382;2023-05-20T08:11:42;14.80;99.90
30037;DHT22;36325;51.512;-0.382;2023-05-20T08:14:11;15.00;99.90
30037;DHT22;36325;51.512;-0.382;2023-05-20T08:16:42;15.30;99.90
30037;DHT22;36325;51.512;-0.382;2023-05-20T08:19:09;15.40;99.90
30037;DHT22;36325;51.512;-0.382;2023-05-20T08:21:37;16.00;99.90
30037;DHT22;36325;51.512;-0.382;2023-05-20T08:24:05;16.00;99.90
30037;DHT22;36325;51.512;-0.382;2023-05-20T08:26:34;16.40;99.90
30037;DHT22;36325;51.512;-0.382;2023-05-20T08:29:01;16.70;99.90
30037;DHT22;36325;51.512;-0.382;2023-05-20T08:31:29;16.80;99.90
30037;DHT22;36325;51.512;-0.382;2023-05-20T08:33:56;16.90;99.90
30037;DHT22;36325;51.512;-0.382;2023-05-20T08:36:25;17.10;99.90
30037;DHT22;36325;51.512;-0.382;2023-05-20T08:38:53;17.50;99.90
30037;DHT22;36325;51.512;-0.382;2023-05-20T08:41:21;17.80;99.90
30037;DHT22;36325;51.512;-0.382;2023-05-20T08:43:52;18.00;99.90
30037;DHT22;36325;51.512;-0.382;2023-05-20T08:46:21;18.20;99.90
30037;DHT22;36325;51.512;-0.382;2023-05-20T08:48:49;18.10;99.90
30037;DHT22;36325;51.512;-0.382;2023-05-20T08:51:19;18.50;99.90
30037;DHT22;36325;51.512;-0.382;2023-05-20T08:53:49;18.50;99.90
30037;DHT22;36325;51.512;-0.382;2023-05-20T08:56:17;17.10;99.90
30037;DHT22;36325;51.512;-0.382;2023-05-20T08:58:44;18.80;99.90
30037;DHT22;36325;51.512;-0.382;2023-05-20T09:01:12;19.10;99.90
30037;DHT22;36325;51.512;-0.382;2023-05-20T09:03:40;19.40;99.90
30037;DHT22;36325;51.512;-0.382;2023-05-20T09:06:08;19.50;99.90
30037;DHT22;36325;51.512;-0.382;2023-05-20T09:08:36;19.60;99.90
30037;DHT22;36325;51.512;-0.382;2023-05-20T09:11:03;19.60;99.90
30037;DHT22;36325;51.512;-0.382;2023-05-20T09:13:31;19.70;99.90
30037;DHT22;36325;51.512;-0.382;2023-05-20T09:16:01;20.00;99.90
30037;DHT22;36325;51.512;-0.382;2023-05-20T09:18:29;20.20;99.90
30037;DHT22;36325;51.512;-0.382;2023-05-20T09:20:57;20.90;99.90
30037;DHT22;36325;51.512;-0.382;2023-05-20T09:23:24;20.90;99.90
30037;DHT22;36325;51.512;-0.382;2023-05-20T09:25:51;21.20;99.90
30037;DHT22;36325;51.512;-0.382;2023-05-20T09:28:22;21.30;99.90
30037;DHT22;36325;51.512;-0.382;2023-05-20T09:30:55;21.20;99.90
30037;DHT22;36325;51.512;-0.382;2023-05-20T09:33:28;21.20;99.90
30037;DHT22;36325;51.512;-0.382;2023-05-20T09:36:02;21.30;99.90
30037;DHT22;36325;51.512;-0.382;2023-05-20T09:38:32;21.50;99.90
30037;DHT22;36325;51.512;-0.382;2023-05-20T09:41:11;21.70;99.90
30037;DHT22;36325;51.512;-0.382;2023-05-20T09:43:39;22.00;99.90
30037;DHT22;36325;51.512;-0.382;2023-05-20T09:46:07;22.30;99.90
30037;DHT22;36325;51.512;-0.382;2023-05-20T09:48:35;22.30;99.90
30037;DHT22;36325;51.512;-0.382;2023-05-20T09:51:05;22.30;99.90
30037;DHT22;36325;51.512;-0.382;2023-05-20T09:53:34;22.60;99.90
30037;DHT22;36325;51.512;-0.382;2023-05-20T09:56:02;22.80;99.90
30037;DHT22;36325;51.512;-0.382;2023-05-20T09:58:29;22.80;99.90
30037;DHT22;36325;51.512;-0.382;2023-05-20T10:00:57;22.80;99.90
30037;DHT22;36325;51.512;-0.382;2023-05-20T10:03:24;22.80;99.90
30037;DHT22;36325;51.512;-0.382;2023-05-20T10:11:18;23.10;99.90
30037;DHT22;36325;51.512;-0.382;2023-05-20T10:14:08;23.10;99.90
30037;DHT22;36325;51.512;-0.382;2023-05-20T10:17:19;23.30;99.90
30037;DHT22;36325;51.512;-0.382;2023-05-20T10:19:47;23.30;99.90
30037;DHT22;36325;51.512;-0.382;2023-05-20T10:22:26;23.60;99.90
30037;DHT22;36325;51.512;-0.382;2023-05-20T10:25:04;23.20;99.90
30037;DHT22;36325;51.512;-0.382;2023-05-20T10:27:47;23.00;99.90
30037;DHT22;36325;51.512;-0.382;2023-05-20T10:30:16;23.60;99.90
30037;DHT22;36325;51.512;-0.382;2023-05-20T10:32:57;23.60;99.90
30037;DHT22;36325;51.512;-0.382;2023-05-20T10:35:29;23.50;99.90
30037;DHT22;36325;51.512;-0.382;2023-05-20T10:38:11;23.90;99.90
30037;DHT22;36325;51.512;-0.382;2023-05-20T10:40:39;24.10;99.90
30037;DHT22;36325;51.512;-0.382;2023-05-20T10:43:24;24.70;99.90
30037;DHT22;36325;51.512;-0.382;2023-05-20T10:45:56;25.30;99.90
30037;DHT22;36325;51.512;-0.382;2023-05-20T10:48:28;25.30;99.90
30037;DHT22;36325;51.512;-0.382;2023-05-20T10:51:02;25.00;99.90
30037;DHT22;36325;51.512;-0.382;2023-05-20T10:53:39;24.70;99.90
30037;DHT22;36325;51.512;-0.382;2023-05-20T10:56:17;24.90;99.90
30037;DHT22;36325;51.512;-0.382;2023-05-20T10:58:45;24.50;99.90
30037;DHT22;36325;51.512;-0.382;2023-05-20T11:01:14;24.60;99.90
30037;DHT22;36325;51.512;-0.382;2023-05-20T11:03:45;24.60;99.90
30037;DHT22;36325;51.512;-0.382;2023-05-20T11:06:18;25.10;99.90
30037;DHT22;36325;51.512;-0.382;2023-05-20T11:08:47;25.40;99.90
30037;DHT22;36325;51.512;-0.382;2023-05-20T11:11:15;24.20;99.90
30037;DHT22;36325;51.512;-0.382;2023-05-20T11:13:42;24.10;99.90
30037;DHT22;36325;51.512;-0.382;2023-05-20T11:16:09;24.00;99.90
30037;DHT22;36325;51.512;-0.382;2023-05-20T11:18:37;24.80;99.90
30037;DHT22;36325;51.512;-0.382;2023-05-20T11:21:05;25.40;99.90
30037;DHT22;36325;51.512;-0.382;2023-05-20T11:23:33;25.30;99.90
30037;DHT22;36325;51.512;-0.382;2023-05-20T11:26:01;25.00;99.90
30037;DHT22;36325;51.512;-0.382;2023-05-20T11:28:29;24.40;99.90
30037;DHT22;36325;51.512;-0.382;2023-05-20T11:30:56;24.10;99.90
30037;DHT22;36325;51.512;-0.382;2023-05-20T11:33:25;23.90;99.90
30037;DHT22;36325;51.512;-0.382;2023-05-20T11:35:53;24.70;99.90
30037;DHT22;36325;51.512;-0.382;2023-05-20T11:38:20;25.60;99.90
30037;DHT22;36325;51.512;-0.382;2023-05-20T11:40:52;26.30;99.90
30037;DHT22;36325;51.512;-0.382;2023-05-20T11:43:21;25.60;99.90
30037;DHT22;36325;51.512;-0.382;2023-05-20T11:45:54;25.10;99.90
30037;DHT22;36325;51.512;-0.382;2023-05-20T11:48:22;24.90;99.90
30037;DHT22;36325;51.512;-0.382;2023-05-20T11:50:52;25.10;99.90
30037;DHT22;36325;51.512;-0.382;2023-05-20T11:53:21;23.90;99.90
30037;DHT22;36325;51.512;-0.382;2023-05-20T11:55:56;23.90;99.90
30037;DHT22;36325;51.512;-0.382;2023-05-20T11:58:30;23.50;99.90
30037;DHT22;36325;51.512;-0.382;2023-05-20T12:00:58;23.30;99.90
30037;DHT22;36325;51.512;-0.382;2023-05-20T12:03:39;24.10;99.90
30037;DHT22;36325;51.512;-0.382;2023-05-20T12:06:06;25.90;99.90
30037;DHT22;36325;51.512;-0.382;2023-05-20T12:08:34;26.60;99.90
30037;DHT22;36325;51.512;-0.382;2023-05-20T12:11:01;25.80;99.90
30037;DHT22;36325;51.512;-0.382;2023-05-20T12:13:28;24.80;99.90
30037;DHT22;36325;51.512;-0.382;2023-05-20T12:15:56;24.90;99.90
30037;DHT22;36325;51.512;-0.382;2023-05-20T12:18:23;25.70;99.90
30037;DHT22;36325;51.512;-0.382;2023-05-20T12:20:50;25.30;99.90
30037;DHT22;36325;51.512;-0.382;2023-05-20T12:23:18;25.70;99.90
30037;DHT22;36325;51.512;-0.382;2023-05-20T12:25:45;25.90;99.90
30037;DHT22;36325;51.512;-0.382;2023-05-20T12:28:13;25.90;99.90
30037;DHT22;36325;51.512;-0.382;2023-05-20T12:30:40;27.10;99.90
30037;DHT22;36325;51.512;-0.382;2023-05-20T12:33:07;28.10;99.60
30037;DHT22;36325;51.512;-0.382;2023-05-20T12:35:36;28.60;99.20
30037;DHT22;36325;51.512;-0.382;2023-05-20T12:38:04;29.20;98.00
30037;DHT22;36325;51.512;-0.382;2023-05-20T12:40:33;29.80;97.60
30037;DHT22;36325;51.512;-0.382;2023-05-20T12:43:02;30.10;96.80
30037;DHT22;36325;51.512;-0.382;2023-05-20T12:47:58;29.60;96.60
30037;DHT22;36325;51.512;-0.382;2023-05-20T12:50:26;30.80;95.80
30037;DHT22;36325;51.512;-0.382;2023-05-20T12:52:54;30.90;94.10
30037;DHT22;36325;51.512;-0.382;2023-05-20T12:55:21;30.00;92.40
30037;DHT22;36325;51.512;-0.382;2023-05-20T12:57:48;28.80;92.70
30037;DHT22;36325;51.512;-0.382;2023-05-20T13:00:16;28.90;93.40
30037;DHT22;36325;51.512;-0.382;2023-05-20T13:02:43;28.90;93.00
30037;DHT22;36325;51.512;-0.382;2023-05-20T13:05:12;27.60;94.00
30037;DHT22;36325;51.512;-0.382;2023-05-20T13:07:39;27.30;95.20
30037;DHT22;36325;51.512;-0.382;2023-05-20T13:10:07;26.50;95.80
30037;DHT22;36325;51.512;-0.382;2023-05-20T13:12:36;25.20;96.60
30037;DHT22;36325;51.512;-0.382;2023-05-20T13:15:04;26.60;96.70
30037;DHT22;36325;51.512;-0.382;2023-05-20T13:17:32;27.50;95.50
30037;DHT22;36325;51.512;-0.382;2023-05-20T13:19:59;27.90;95.00
30037;DHT22;36325;51.512;-0.382;2023-05-20T13:22:26;27.40;94.00
30037;DHT22;36325;51.512;-0.382;2023-05-20T13:24:54;27.60;93.90
30037;DHT22;36325;51.512;-0.382;2023-05-20T13:27:21;28.50;93.80
30037;DHT22;36325;51.512;-0.382;2023-05-20T13:29:49;29.00;93.30
30037;DHT22;36325;51.512;-0.382;2023-05-20T13:32:16;28.40;93.10
30037;DHT22;36325;51.512;-0.382;2023-05-20T13:34:44;29.30;93.00
30037;DHT22;36325;51.512;-0.382;2023-05-20T13:37:11;29.50;92.20
30037;DHT22;36325;51.512;-0.382;2023-05-20T13:39:38;27.90;92.60
30037;DHT22;36325;51.512;-0.382;2023-05-20T13:42:06;26.80;94.10
30037;DHT22;36325;51.512;-0.382;2023-05-20T13:44:33;27.20;93.40
30037;DHT22;36325;51.512;-0.382;2023-05-20T13:47:00;27.20;93.80
30037;DHT22;36325;51.512;-0.382;2023-05-20T13:49:27;26.40;93.70
30037;DHT22;36325;51.512;-0.382;2023-05-20T13:51:55;26.80;93.80
30037;DHT22;36325;51.512;-0.382;2023-05-20T13:54:22;27.20;93.30
30037;DHT22;36325;51.512;-0.382;2023-05-20T13:56:49;26.70;93.20
30037;DHT22;36325;51.512;-0.382;2023-05-20T13:59:16;25.80;93.50
30037;DHT22;36325;51.512;-0.382;2023-05-20T14:01:43;24.90;93.50
30037;DHT22;36325;51.512;-0.382;2023-05-20T14:04:11;24.20;94.10
30037;DHT22;36325;51.512;-0.382;2023-05-20T14:06:40;23.90;94.90
30037;DHT22;36325;51.512;-0.382;2023-05-20T14:09:07;23.80;95.20
30037;DHT22;36325;51.512;-0.382;2023-05-20T14:11:35;25.30;94.70
30037;DHT22;36325;51.512;-0.382;2023-05-20T14:14:03;26.90;94.40
30037;DHT22;36325;51.512;-0.382;2023-05-20T14:16:30;27.80;93.70
30037;DHT22;36325;51.512;-0.382;2023-05-20T14:18:58;27.40;93.10
30037;DHT22;36325;51.512;-0.382;2023-05-20T14:21:26;25.80;92.90
30037;DHT22;36325;51.512;-0.382;2023-05-20T14:23:53;25.60;94.00
30037;DHT22;36325;51.512;-0.382;2023-05-20T14:26:20;24.40;94.40
30037;DHT22;36325;51.512;-0.382;2023-05-20T14:28:50;25.00;95.50
30037;DHT22;36325;51.512;-0.382;2023-05-20T14:33:45;26.90;93.20
30037;DHT22;36325;51.512;-0.382;2023-05-20T14:36:12;25.90;94.20
30037;DHT22;36325;51.512;-0.382;2023-05-20T14:38:40;25.20;94.60
30037;DHT22;36325;51.512;-0.382;2023-05-20T14:41:07;24.50;95.10
30037;DHT22;36325;51.512;-0.382;2023-05-20T14:46:03;23.90;95.90
30037;DHT22;36325;51.512;-0.382;2023-05-20T14:48:30;25.30;95.50
30037;DHT22;36325;51.512;-0.382;2023-05-20T14:50:57;26.70;94.50
30037;DHT22;36325;51.512;-0.382;2023-05-20T14:53:24;27.40;93.70
30037;DHT22;36325;51.512;-0.382;2023-05-20T14:55:52;27.10;93.40
30037;DHT22;36325;51.512;-0.382;2023-05-20T14:58:19;26.30;93.50
30037;DHT22;36325;51.512;-0.382;2023-05-20T15:03:14;24.40;94.20
30037;DHT22;36325;51.512;-0.382;2023-05-20T15:05:41;24.40;94.60
30037;DHT22;36325;51.512;-0.382;2023-05-20T15:08:09;24.90;94.40
30037;DHT22;36325;51.512;-0.382;2023-05-20T15:10:36;25.60;94.30
30037;DHT22;36325;51.512;-0.382;2023-05-20T15:13:04;26.50;93.60
30037;DHT22;36325;51.512;-0.382;2023-05-20T15:15:32;26.50;93.60
30037;DHT22;36325;51.512;-0.382;2023-05-20T15:18:00;24.90;94.30
30037;DHT22;36325;51.512;-0.382;2023-05-20T15:22:56;24.40;94.80
30037;DHT22;36325;51.512;-0.382;2023-05-20T15:25:24;24.50;95.40
30037;DHT22;36325;51.512;-0.382;2023-05-20T15:27:53;25.30;94.70
30037;DHT22;36325;51.512;-0.382;2023-05-20T15:30:20;26.20;93.30
30037;DHT22;36325;51.512;-0.382;2023-05-20T15:32:48;27.80;91.40
30037;DHT22;36325;51.512;-0.382;2023-05-20T15:35:16;27.90;91.60
30037;DHT22;36325;51.512;-0.382;2023-05-20T15:37:43;27.40;91.60
30037;DHT22;36325;51.512;-0.382;2023-05-20T15:40:11;26.40;92.20
30037;DHT22;36325;51.512;-0.382;2023-05-20T15:42:38;25.50;93.30
30037;DHT22;36325;51.512;-0.382;2023-05-20T15:45:07;24.90;93.90
30037;DHT22;36325;51.512;-0.382;2023-05-20T15:47:35;25.70;93.80
30037;DHT22;36325;51.512;-0.382;2023-05-20T15:50:04;24.60;93.90
30037;DHT22;36325;51.512;-0.382;2023-05-20T15:52:36;24.60;94.40
30037;DHT22;36325;51.512;-0.382;2023-05-20T15:55:04;25.20;94.70
30037;DHT22;36325;51.512;-0.382;2023-05-20T15:59:59;26.60;90.10
30037;DHT22;36325;51.512;-0.382;2023-05-20T16:02:27;26.50;90.90
30037;DHT22;36325;51.512;-0.382;2023-05-20T16:04:54;25.60;91.20
30037;DHT22;36325;51.512;-0.382;2023-05-20T16:07:21;24.10;93.00
30037;DHT22;36325;51.512;-0.382;2023-05-20T16:09:49;24.10;93.40
30037;DHT22;36325;51.512;-0.382;2023-05-20T16:12:16;23.10;95.10
30037;DHT22;36325;51.512;-0.382;2023-05-20T16:14:43;24.10;94.70
30037;DHT22;36325;51.512;-0.382;2023-05-20T16:17:11;24.50;92.80
30037;DHT22;36325;51.512;-0.382;2023-05-20T16:19:39;24.50;93.90
30037;DHT22;36325;51.512;-0.382;2023-05-20T16:24:37;23.00;93.90
30037;DHT22;36325;51.512;-0.382;2023-05-20T16:27:05;23.60;94.00
30037;DHT22;36325;51.512;-0.382;2023-05-20T16:29:33;23.70;94.30
30037;DHT22;36325;51.512;-0.382;2023-05-20T16:32:00;24.20;94.40
30037;DHT22;36325;51.512;-0.382;2023-05-20T16:34:27;24.90;93.80
30037;DHT22;36325;51.512;-0.382;2023-05-20T16:36:54;25.50;92.60
30037;DHT22;36325;51.512;-0.382;2023-05-20T16:39:22;25.80;91.60
30037;DHT22;36325;51.512;-0.382;2023-05-20T16:41:50;24.80;90.10
30037;DHT22;36325;51.512;-0.382;2023-05-20T16:44:17;24.70;90.50
30037;DHT22;36325;51.512;-0.382;2023-05-20T16:46:44;24.00;91.10
30037;DHT22;36325;51.512;-0.382;2023-05-20T16:49:12;23.30;92.10
30037;DHT22;36325;51.512;-0.382;2023-05-20T16:51:39;22.80;93.10
30037;DHT22;36325;51.512;-0.382;2023-05-20T16:54:06;22.80;93.90
30037;DHT22;36325;51.512;-0.382;2023-05-20T16:56:34;23.40;94.00
30037;DHT22;36325;51.512;-0.382;2023-05-20T16:59:02;23.80;93.80
30037;DHT22;36325;51.512;-0.382;2023-05-20T17:01:30;23.90;93.50
30037;DHT22;36325;51.512;-0.382;2023-05-20T17:03:57;22.80;93.40
30037;DHT22;36325;51.512;-0.382;2023-05-20T17:06:25;22.80;93.90
30037;DHT22;36325;51.512;-0.382;2023-05-20T17:08:52;22.40;94.70
30037;DHT22;36325;51.512;-0.382;2023-05-20T17:13:48;22.60;94.80
30037;DHT22;36325;51.512;-0.382;2023-05-20T17:18:43;23.10;94.90
30037;DHT22;36325;51.512;-0.382;2023-05-20T17:21:10;22.20;94.50
30037;DHT22;36325;51.512;-0.382;2023-05-20T17:23:40;22.20;94.60
30037;DHT22;36325;51.512;-0.382;2023-05-20T17:26:07;21.30;96.30
30037;DHT22;36325;51.512;-0.382;2023-05-20T17:28:34;21.20;96.40
30037;DHT22;36325;51.512;-0.382;2023-05-20T17:31:02;20.80;97.60
30037;DHT22;36325;51.512;-0.382;2023-05-20T17:33:29;23.00;98.90
30037;DHT22;36325;51.512;-0.382;2023-05-20T17:35:57;20.70;98.20
30037;DHT22;36325;51.512;-0.382;2023-05-20T17:38:24;20.70;98.80
30037;DHT22;36325;51.512;-0.382;2023-05-20T17:40:54;20.90;98.90
30037;DHT22;36325;51.512;-0.382;2023-05-20T17:43:21;22.30;98.80
30037;DHT22;36325;51.512;-0.382;2023-05-20T17:45:51;21.30;99.00
30037;DHT22;36325;51.512;-0.382;2023-05-20T17:48:18;21.40;99.10
30037;DHT22;36325;51.512;-0.382;2023-05-20T17:53:13;21.40;99.30
30037;DHT22;36325;51.512;-0.382;2023-05-20T18:00:38;20.70;99.90
30037;DHT22;36325;51.512;-0.382;2023-05-20T18:03:08;20.30;99.90
30037;DHT22;36325;51.512;-0.382;2023-05-20T18:05:36;20.20;99.90
30037;DHT22;36325;51.512;-0.382;2023-05-20T18:08:03;20.10;99.90
30037;DHT22;36325;51.512;-0.382;2023-05-20T18:10:31;19.90;99.90
30037;DHT22;36325;51.512;-0.382;2023-05-20T18:12:58;19.90;99.90
30037;DHT22;36325;51.512;-0.382;2023-05-20T18:15:26;19.80;99.90
30037;DHT22;36325;51.512;-0.382;2023-05-20T18:17:53;19.80;99.90